• Join FlightAware (Why Join?)
  • Login
  • US Flag GB Flag 
12:26 EDT


 

Airport Tracker/Info


-or-


 

Live Flight TrackerFlight Track Log ✈ FLG3757 ✈ 21-Oct-2013 ✈ KBGM - KDTW

Flight Track Log - Related Links

Times and Time Zones

All times are in EDT time to prevent confusion due to time zone crossing. See the FLG3757 flight status page for this flight to view local times or setup timezone preferences in your user account.

Time Position Orientation Groundspeed Altitude Reporting Facility
EDT Latitude Longitude Course Direction KTS MPH feet Rate Location/Type
06:14 42.1756 -75.9811 289° West 440 506 3,000  Level New York Center
06:15 42.1850 -76.0489 281° West 173 199 5,100 1,800 Climbing New York Center
06:16 42.2103 -76.1322 292° West 200 230 6,600 2,100 Climbing New York Center
06:17 42.2356 -76.2183 292° West 234 269 9,400 2,100 Climbing New York Center
06:19 42.2842 -76.3775 292° West 289 333 12,200 1,800 Climbing Cleveland Center
06:20 42.2282 -76.6462 289° West  Level Estimated
06:20 42.3183 -76.4836 294° West 315 362 14,200  Level Cleveland Center
06:21 42.3500 -76.5950 291° West 319 367 16,000 1,620 Climbing Cleveland Center
06:22 42.3842 -76.7081 292° West 326 375 17,600 1,380 Climbing Cleveland Center
06:23 42.4172 -76.8231 291° West 328 377 18,900 1,260 Climbing Cleveland Center
06:24 42.4514 -76.9383 292° West 329 379 20,200 1,140 Climbing Cleveland Center
06:25 42.4856 -77.0575 291° West 338 389 21,300 1,140 Climbing Cleveland Center
06:26 42.5197 -77.1744 292° West 335 386 22,600 1,020 Climbing Cleveland Center
06:27 42.5531 -77.2939 291° West 340 391 23,400 840 Climbing Cleveland Center
06:28 42.5881 -77.4153 291° West 344 396 24,400 960 Climbing Cleveland Center
06:29 42.6242 -77.5431 291° West 347 399 25,400 780 Climbing Cleveland Center
06:30 42.6575 -77.6650 290° West 345 397 26,100 720 Climbing Cleveland Center
06:31 42.6994 -77.8083 292° West 354 407 26,900 660 Climbing Cleveland Center
06:32 42.7317 -77.9236 291° West 358 412 27,500 540 Climbing Cleveland Center
06:33 42.7650 -78.0464 290° West 350 403 28,000 240 Climbing Cleveland Center
06:34 42.7919 -78.1778 286° West 363 418 28,000  Level Cleveland Center
06:35 42.7897 -78.3122 269° West 357 411 28,000  Level Cleveland Center
06:36 42.7867 -78.4781 269° West 364 419 28,000  Level Cleveland Center
06:37 42.7828 -78.6175 268° West 370 426 28,000  Level Cleveland Center
06:38 42.7806 -78.7567 269° West 370 426 28,000  Level Cleveland Center
06:39 42.7778 -78.8917 268° West 363 418 28,000  Level Cleveland Center
06:40 42.7725 -79.0289 267° West 362 417 28,000  Level Cleveland Center
06:41 42.7700 -79.1661 269° West 363 418 28,000  Level Cleveland Center
06:42 42.7656 -79.3014 267° West 360 414 28,000  Level Cleveland Center
06:43 42.7614 -79.4383 268° West 362 417 28,000  Level Cleveland Center
06:44 42.7575 -79.5750 268° West 363 418 28,000  Level Cleveland Center
06:45 42.7519 -79.7111 267° West 362 417 28,000  Level Cleveland Center
06:46 42.7464 -79.8747 267° West 362 417 28,000  Level Cleveland Center
06:47 42.7419 -80.0111 268° West 368 423 28,000  Level Cleveland Center
06:49 42.7361 -80.1489 267° West 363 418 28,000  Level Cleveland Center
06:50 42.7306 -80.2861 267° West 362 417 28,000  Level Cleveland Center
06:51 42.7242 -80.4233 266° West 361 415 28,000  Level Cleveland Center
06:52 42.7186 -80.5581 267° West 357 411 28,000 -300 Level Cleveland Center
06:53 42.7131 -80.6956 267° West 359 413 27,400 -840 Descending Cleveland Center
06:54 42.7081 -80.8367 267° West 367 422 26,300 -1,080 Descending Cleveland Center
06:55 42.6961 -80.9719 263° West 362 417 25,300 -1,080 Descending Cleveland Center
06:56 42.6794 -81.1172 261° West 380 437 24,100 -1,200 Descending Cleveland Center
06:57 42.6636 -81.2597 261° West 379 436 22,900 -1,320 Descending Cleveland Center
06:58 42.6439 -81.4233 261° West 376 433 21,500 -1,320 Descending Cleveland Center
06:59 42.6275 -81.5636 261° West 375 432 20,300 -1,200 Descending Cleveland Center
07:00 42.6108 -81.7050 261° West 376 433 19,100 -1,260 Descending Cleveland Center
07:01 42.5942 -81.8444 261° West 374 430 17,800 -1,320 Descending Cleveland Center
07:02 42.5781 -81.9769 261° West 360 414 16,500 -1,380 Descending Cleveland Center
07:03 42.5578 -82.1567 261° West 354 407 14,700 -1,440 Descending Cleveland Center
07:04 42.5450 -82.2514 260° West 344 396 13,700 -1,200 Descending Cleveland Center
07:04 42.5464 -82.2375 82° East 352 405 13,800 -1,140 Climbing Cleveland Center
07:05 42.5303 -82.3739 261° West 331 381 12,600 -1,140 Descending Cleveland Center
07:05 42.5306 -82.3606 88° East 339 390 12,700 -600 Climbing Cleveland Center
07:06 42.5153 -82.4994 262° West 330 380 12,000 -720 Descending Cleveland Center
07:06 42.5156 -82.4825 89° East 331 381 12,000 -420 Level Cleveland Center
07:07 42.4842 -82.6142 252° West 303 349 11,600 -540 Descending Cleveland Center
07:07 42.4811 -82.6194 232° Southwest 325 374 11,500 -1,140 Descending Cleveland Center
07:08 42.4478 -82.7142 245° Southwest 250 288 10,400 -1,080 Descending Cleveland Center
07:09 42.4292 -82.7992 254° West 230 265 9,400 -1,020 Descending Cleveland Center
07:10 42.4144 -82.8850 257° West 227 261 8,400 -900 Descending Cleveland Center
07:10 42.4136 -82.8764 97° East 233 268 8,500 -1,200 Climbing Cleveland Center
07:11 42.3989 -82.9581 256° West 227 261 7,200 -1,500 Descending Cleveland Center
07:11 42.3972 -82.9758 263° West 224 258 6,900 -1,200 Descending Cleveland Center
07:12 42.3836 -83.0397 254° West 225 259 6,000 -900 Descending Cleveland Center
07:12 42.3806 -83.0583 257° West 226 260 6,000 -780 Level Cleveland Center
07:13 42.3650 -83.1203 251° West 225 259 5,200 -1,020 Descending Cleveland Center
07:13 42.3617 -83.1406 257° West 226 260 5,000 -1,020 Descending Cleveland Center
07:14 42.3453 -83.1964 248° West 219 252 4,200 -1,380 Descending Cleveland Center
07:14 42.3375 -83.2133 238° Southwest 202 232 3,600 -1,560 Descending Cleveland Center
07:15 42.3081 -83.2639 232° Southwest 195 224 2,600 -1,020 Descending Cleveland Center
07:15 42.3058 -83.2683 236° Southwest 141 162 2,600 -600 Level Cleveland Center
07:16 42.2800 -83.2881 209° Southwest 146 168 2,000 -600 Descending Cleveland Center
07:16 42.2792 -83.2900 240° Southwest 105 121 2,000 -540 Level Cleveland Center
07:17 42.2544 -83.3092 210° Southwest 112 129 1,500 -600 Descending Cleveland Center
07:17 42.2533 -83.3083 151° Southeast 122 140 1,400 -720 Descending Cleveland Center
07:18 42.2256 -83.3303 210° Southwest 120 138 800 -300 Descending Cleveland Center
07:18 42.2283 -83.3261 48° Northeast 118 136 1,100 3,600 Climbing Cleveland Center
07:20 42.2124 -83.3534 236° Southwest  Level Estimated
07:27 42.2124 -83.3534 236° Southwest  Level Estimated
07:28 42.2124 -83.3534 236° Southwest  Level Estimated